Observation data for Spur on 08/15/2019      Previous  Date       Current Mesonet Observations  Soil Data  Daily Summary Page  Observations in Plain Language
KSP1 150500Z 11004KT 28/17 A301 RMK A01 T02790170  RH  054%=      5-min Rain = 0
KSP1 150505Z 10005KT 28/17 A301 RMK A01 T02790170  RH  054%=      5-min Rain = 0
KSP1 150510Z 09006KT 28/17 A3011 RMK A01 T02790171  RH  055%=      5-min Rain = 0
KSP1 150515Z 10006KT 28/17 A3011 RMK A01 T02780171  RH  055%=      5-min Rain = 0
KSP1 150520Z 10005KT 28/17 A3011 RMK A01 T02780171  RH  055%=      5-min Rain = 0
KSP1 150525Z 09006KT 28/17 A3011 RMK A01 T02770172  RH  055%=      5-min Rain = 0
KSP1 150530Z 10006KT 28/17 A3011 RMK A01 T02770173  RH  056%=      5-min Rain = 0
KSP1 150535Z 10006KT 28/17 A3011 RMK A01 T02770173  RH  056%=      5-min Rain = 0
KSP1 150540Z 10006KT 28/17 A3011 RMK A01 T02760174  RH  056%=      5-min Rain = 0
KSP1 150545Z 10006KT 28/17 A3012 RMK A01 T02760174  RH  057%=      5-min Rain = 0
KSP1 150550Z 11005KT 28/17 A3011 RMK A01 T02750174  RH  057%=      5-min Rain = 0
KSP1 150555Z 11005KT 27/17 A3012 RMK A01 T02740174  RH  057%=      5-min Rain = 0
KSP1 150600Z 11005KT 27/17 A3012 RMK A01 T02720174  RH  058%=      5-min Rain = 0
KSP1 150605Z 11005KT 27/17 A3012 RMK A01 T02720174  RH  058%=      5-min Rain = 0
KSP1 150610Z 11005KT 27/18 A3012 RMK A01 T02720175  RH  058%=      5-min Rain = 0
KSP1 150615Z 11006KT 27/18 A3012 RMK A01 T02720175  RH  058%=      5-min Rain = 0
KSP1 150620Z 11005KT 27/18 A3012 RMK A01 T02710175  RH  059%=      5-min Rain = 0
KSP1 150625Z 12005KT 27/18 A3012 RMK A01 T02700175  RH  059%=      5-min Rain = 0
KSP1 150630Z 11006KT 27/18 A3012 RMK A01 T02700176  RH  059%=      5-min Rain = 0
KSP1 150635Z 12005KT 27/18 A3012 RMK A01 T02690176  RH  060%=      5-min Rain = 0
KSP1 150640Z 11006KT 27/18 A3011 RMK A01 T02690177  RH  060%=      5-min Rain = 0
KSP1 150645Z 13004KT 27/18 A3012 RMK A01 T02680177  RH  060%=      5-min Rain = 0
KSP1 150650Z 13004KT 27/18 A3012 RMK A01 T02650177  RH  061%=      5-min Rain = 0
KSP1 150655Z 13004KT 26/18 A3012 RMK A01 T02640176  RH  062%=      5-min Rain = 0
KSP1 150700Z 12004KT 26/18 A3012 RMK A01 T02620176  RH  062%=      5-min Rain = 0
KSP1 150705Z 13003KT 26/18 A3012 RMK A01 T02610177  RH  063%=      5-min Rain = 0
KSP1 150710Z 13004KT 26/18 A3011 RMK A01 T02590177  RH  064%=      5-min Rain = 0
KSP1 150715Z 13004KT 26/18 A3011 RMK A01 T02580177  RH  064%=      5-min Rain = 0
KSP1 150720Z 13004KT 26/18 A3011 RMK A01 T02570178  RH  065%=      5-min Rain = 0
KSP1 150725Z 13003KT 26/18 A3011 RMK A01 T02560178  RH  065%=      5-min Rain = 0
KSP1 150730Z 14004KT 25/18 A3011 RMK A01 T02540178  RH  066%=      5-min Rain = 0
KSP1 150735Z 14003KT 25/18 A3011 RMK A01 T02520178  RH  067%=      5-min Rain = 0
KSP1 150740Z 13003KT 25/18 A3011 RMK A01 T02520178  RH  067%=      5-min Rain = 0
KSP1 150745Z 13003KT 25/18 A301 RMK A01 T02520178  RH  067%=      5-min Rain = 0
KSP1 150750Z 13003KT 25/18 A301 RMK A01 T02520178  RH  067%=      5-min Rain = 0
KSP1 150755Z 13003KT 25/18 A301 RMK A01 T02530178  RH  066%=      5-min Rain = 0
KSP1 150800Z 13003KT 25/18 A301 RMK A01 T02520178  RH  067%=      5-min Rain = 0
KSP1 150805Z 13003KT 25/18 A301 RMK A01 T02510178  RH  067%=      5-min Rain = 0
KSP1 150810Z 13003KT 25/18 A301 RMK A01 T02510178  RH  067%=      5-min Rain = 0
KSP1 150815Z 12003KT 25/18 A301 RMK A01 T02510178  RH  067%=      5-min Rain = 0
KSP1 150820Z 13003KT 25/18 A301 RMK A01 T02510178  RH  067%=      5-min Rain = 0
KSP1 150825Z 12003KT 25/18 A301 RMK A01 T02500178  RH  068%=      5-min Rain = 0
KSP1 150830Z 12003KT 25/18 A301 RMK A01 T02510178  RH  068%=      5-min Rain = 0
KSP1 150835Z 12003KT 25/18 A3009 RMK A01 T02510179  RH  068%=      5-min Rain = 0
KSP1 150840Z 12003KT 25/18 A3009 RMK A01 T02510179  RH  068%=      5-min Rain = 0
KSP1 150845Z 11003KT 25/18 A3009 RMK A01 T02500179  RH  068%=      5-min Rain = 0
KSP1 150850Z 11002KT 25/18 A3009 RMK A01 T02510179  RH  068%=      5-min Rain = 0
KSP1 150855Z 27002KT 25/18 A3009 RMK A01 T02490179  RH  068%=      5-min Rain = 0
KSP1 150900Z 27001KT 24/18 A3009 RMK A01 T02420177  RH  071%=      5-min Rain = 0
KSP1 150905Z 33001KT 24/18 A3009 RMK A01 T02400177  RH  071%=      5-min Rain = 0
KSP1 150910Z 32001KT 24/18 A3009 RMK A01 T02370175  RH  072%=      5-min Rain = 0
KSP1 150915Z 33001KT 23/17 A3009 RMK A01 T02340174  RH  073%=      5-min Rain = 0
KSP1 150920Z 33003KT 23/17 A3009 RMK A01 T02320174  RH  074%=      5-min Rain = 0
KSP1 150925Z 33004KT 23/18 A3009 RMK A01 T02300175  RH  075%=      5-min Rain = 0
KSP1 150930Z 32004KT 23/18 A3009 RMK A01 T02290175  RH  075%=      5-min Rain = 0
KSP1 150935Z 31004KT 23/17 A3009 RMK A01 T02290174  RH  075%=      5-min Rain = 0
KSP1 150940Z 31005KT 23/17 A3009 RMK A01 T02290174  RH  075%=      5-min Rain = 0
KSP1 150945Z 31004KT 23/17 A3009 RMK A01 T02280173  RH  075%=      5-min Rain = 0
KSP1 150950Z 31004KT 23/17 A3008 RMK A01 T02270173  RH  075%=      5-min Rain = 0
KSP1 150955Z 32004KT 23/17 A3008 RMK A01 T02260173  RH  076%=      5-min Rain = 0
KSP1 151000Z 32003KT 23/17 A3009 RMK A01 T02250173  RH  076%=      5-min Rain = 0
KSP1 151005Z 32003KT 23/17 A3008 RMK A01 T02250173  RH  076%=      5-min Rain = 0
KSP1 151010Z 34003KT 23/17 A3008 RMK A01 T02250173  RH  076%=      5-min Rain = 0
KSP1 151015Z 03002KT 23/17 A3008 RMK A01 T02260173  RH  076%=      5-min Rain = 0
KSP1 151020Z 04002KT 23/17 A3008 RMK A01 T02260173  RH  076%=      5-min Rain = 0
KSP1 151025Z 04002KT 23/17 A3008 RMK A01 T02250173  RH  076%=      5-min Rain = 0
KSP1 151030Z 06004KT 23/17 A3008 RMK A01 T02250174  RH  077%=      5-min Rain = 0
KSP1 151035Z 07004KT 23/18 A3008 RMK A01 T02250176  RH  078%=      5-min Rain = 0
KSP1 151040Z 07003KT 23/18 A3008 RMK A01 T02270177  RH  078%=      5-min Rain = 0
KSP1 151045Z 07003KT 23/18 A3007 RMK A01 T02270178  RH  077%=      5-min Rain = 0
KSP1 151050Z 06003KT 23/18 A3007 RMK A01 T02250176  RH  078%=      5-min Rain = 0
KSP1 151055Z 05003KT 23/18 A3008 RMK A01 T02250177  RH  078%=      5-min Rain = 0
KSP1 151100Z 02002KT 23/18 A3008 RMK A01 T02250177  RH  078%=      5-min Rain = 0
KSP1 151105Z 33002KT 22/18 A3008 RMK A01 T02240176  RH  079%=      5-min Rain = 0
KSP1 151110Z 32004KT 22/18 A3009 RMK A01 T02210176  RH  080%=      5-min Rain = 0
KSP1 151115Z 31004KT 22/18 A3009 RMK A01 T02200176  RH  080%=      5-min Rain = 0
KSP1 151120Z 32004KT 22/18 A3008 RMK A01 T02190175  RH  080%=      5-min Rain = 0
KSP1 151125Z 32004KT 22/18 A3008 RMK A01 T02180175  RH  080%=      5-min Rain = 0
KSP1 151130Z 32004KT 22/18 A3009 RMK A01 T02190175  RH  080%=      5-min Rain = 0
KSP1 151135Z 32004KT 22/17 A3009 RMK A01 T02190174  RH  080%=      5-min Rain = 0
KSP1 151140Z 32004KT 22/17 A3009 RMK A01 T02180174  RH  080%=      5-min Rain = 0
KSP1 151145Z 33005KT 22/17 A3009 RMK A01 T02160174  RH  081%=      5-min Rain = 0
KSP1 151150Z 34006KT 22/17 A3009 RMK A01 T02150174  RH  082%=      5-min Rain = 0
KSP1 151155Z 35006KT 22/17 A3009 RMK A01 T02160174  RH  081%=      5-min Rain = 0
KSP1 151200Z 36004KT 22/18 A3009 RMK A01 T02180175  RH  080%=      5-min Rain = 0
KSP1 151205Z 36003KT 22/17 A301 RMK A01 T02190174  RH  080%=      5-min Rain = 0
KSP1 151210Z 36002KT 22/17 A301 RMK A01 T02180174  RH  080%=      5-min Rain = 0
KSP1 151215Z 03002KT 22/18 A301 RMK A01 T02170175  RH  081%=      5-min Rain = 0
KSP1 151220Z 04004KT 22/18 A301 RMK A01 T02180176  RH  081%=      5-min Rain = 0
KSP1 151225Z 03004KT 22/18 A301 RMK A01 T02200177  RH  081%=      5-min Rain = 0
KSP1 151230Z 05004KT 22/18 A301 RMK A01 T02200177  RH  081%=      5-min Rain = 0
KSP1 151235Z 06005KT 22/18 A301 RMK A01 T02210178  RH  080%=      5-min Rain = 0
KSP1 151240Z 06004KT 22/18 A301 RMK A01 T02230178  RH  080%=      5-min Rain = 0
KSP1 151245Z 05004KT 22/18 A301 RMK A01 T02240179  RH  079%=      5-min Rain = 0
KSP1 151250Z 03004KT 23/18 A301 RMK A01 T02290179  RH  078%=      5-min Rain = 0
KSP1 151255Z 01004KT 23/18 A301 RMK A01 T02340181  RH  076%=      5-min Rain = 0
KSP1 151300Z 01005KT 24/18 A3011 RMK A01 T02370181  RH  075%=      5-min Rain = 0
KSP1 151305Z 02004KT 24/18 A3011 RMK A01 T02420183  RH  073%=      5-min Rain = 0
KSP1 151310Z 02003KT 25/18 A3011 RMK A01 T02480184  RH  071%=      5-min Rain = 0
KSP1 151315Z 03003KT 25/19 A3011 RMK A01 T02520185  RH  070%=      5-min Rain = 0
KSP1 151320Z 04003KT 26/19 A3011 RMK A01 T02550186  RH  069%=      5-min Rain = 0
KSP1 151325Z 05002KT 26/19 A3011 RMK A01 T02590187  RH  068%=      5-min Rain = 0
KSP1 151330Z 07003KT 26/19 A3011 RMK A01 T02600188  RH  068%=      5-min Rain = 0
KSP1 151335Z 05003KT 26/19 A3011 RMK A01 T02600188  RH  069%=      5-min Rain = 0
KSP1 151340Z 03003KT 26/19 A3012 RMK A01 T02640190  RH  067%=      5-min Rain = 0
KSP1 151345Z 05002KT 27/19 A3011 RMK A01 T02680191  RH  066%=      5-min Rain = 0
KSP1 151350Z 07002KT 27/19 A3011 RMK A01 T02710191  RH  065%=      5-min Rain = 0
KSP1 151355Z 05001KT 27/19 A3011 RMK A01 T02740192  RH  064%=      5-min Rain = 0
KSP1 151400Z 06002KT 28/19 A3011 RMK A01 T02770192  RH  063%=      5-min Rain = 0
KSP1 151405Z 05002KT 28/19 A3011 RMK A01 T02790193  RH  063%=      5-min Rain = 0
KSP1 151410Z 14002KT 28/19 A3011 RMK A01 T02820193  RH  062%=      5-min Rain = 0
KSP1 151415Z 15003KT 28/19 A3011 RMK A01 T02830192  RH  061%=      5-min Rain = 0
KSP1 151420Z 19001KT 28/19 A3011 RMK A01 T02840192  RH  061%=      5-min Rain = 0
KSP1 151425Z 11002KT 29/19 A3012 RMK A01 T02880192  RH  059%=      5-min Rain = 0
KSP1 151430Z 08004KT 29/19 A3012 RMK A01 T02900192  RH  059%=      5-min Rain = 0
KSP1 151435Z 10004KT 29/19 A3011 RMK A01 T02890192  RH  059%=      5-min Rain = 0
KSP1 151440Z 11002KT 29/19 A3011 RMK A01 T02900191  RH  058%=      5-min Rain = 0
KSP1 151445Z 15003KT 29/19 A3011 RMK A01 T02930192  RH  058%=      5-min Rain = 0
KSP1 151450Z 12002KT 29/19 A3012 RMK A01 T02930191  RH  057%=      5-min Rain = 0
KSP1 151455Z 02002KT 30/19 A3012 RMK A01 T02950192  RH  057%=      5-min Rain = 0
KSP1 151500Z 04005KT 30/19 A3013 RMK A01 T02970191  RH  056%=      5-min Rain = 0
KSP1 151505Z 03007KT 30/19 A3013 RMK A01 T03000193  RH  056%=      5-min Rain = 0
KSP1 151510Z 04004KT 30/19 A3013 RMK A01 T02990192  RH  056%=      5-min Rain = 0
KSP1 151515Z 03006KT 30/19 A3013 RMK A01 T03030192  RH  055%=      5-min Rain = 0
KSP1 151520Z 05005KT 30/19 A3013 RMK A01 T03020192  RH  055%=      5-min Rain = 0
KSP1 151525Z 05006KT 30/19 A3013 RMK A01 T03010191  RH  055%=      5-min Rain = 0
KSP1 151530Z 08004KT 30/19 A3013 RMK A01 T03030192  RH  054%=      5-min Rain = 0
KSP1 151535Z 03006KT 31/19 A3013 RMK A01 T03060191  RH  053%=      5-min Rain = 0
KSP1 151540Z 03005KT 31/19 A3013 RMK A01 T03070191  RH  053%=      5-min Rain = 0
KSP1 151545Z 04008G13KT 31/19 A3013 RMK A01 T03070191  RH  053%=      5-min Rain = 0
KSP1 151550Z 03009G15KT 31/19 A3012 RMK A01 T03060192  RH  053%=      5-min Rain = 0
KSP1 151555Z 02011G18KT 31/19 A3012 RMK A01 T03050187  RH  052%=      5-min Rain = 0
KSP1 151600Z 03012G17KT 31/18 A3012 RMK A01 T03060183  RH  050%=      5-min Rain = 0
KSP1 151605Z 05010G17KT 30/18 A3012 RMK A01 T03020181  RH  051%=      5-min Rain = 0
KSP1 151610Z 04010KT 31/18 A3012 RMK A01 T03050183  RH  051%=      5-min Rain = 0
KSP1 151615Z 06006G12KT 31/18 A3011 RMK A01 T03050182  RH  050%=      5-min Rain = 0
KSP1 151620Z 06007KT 31/18 A3011 RMK A01 T03080184  RH  050%=      5-min Rain = 0
KSP1 151625Z 06007KT 31/18 A301 RMK A01 T03070182  RH  050%=      5-min Rain = 0
KSP1 151630Z 08005KT 31/18 A301 RMK A01 T03080184  RH  050%=      5-min Rain = 0
KSP1 151635Z 08003KT 31/19 A301 RMK A01 T03110185  RH  050%=      5-min Rain = 0
KSP1 151640Z 12004KT 31/19 A301 RMK A01 T03140185  RH  049%=      5-min Rain = 0
KSP1 151645Z 05005KT 32/19 A301 RMK A01 T03190185  RH  048%=      5-min Rain = 0
KSP1 151650Z 13003KT 32/18 A3009 RMK A01 T03180184  RH  048%=      5-min Rain = 0
KSP1 151655Z 15005KT 32/19 A3008 RMK A01 T03210185  RH  047%=      5-min Rain = 0
KSP1 151700Z 16006KT 32/19 A3007 RMK A01 T03220186  RH  047%=      5-min Rain = 0
KSP1 151705Z 17006KT 33/19 A3007 RMK A01 T03250186  RH  046%=      5-min Rain = 0
KSP1 151710Z 14007KT 33/18 A3007 RMK A01 T03280184  RH  045%=      5-min Rain = 0
KSP1 151715Z 14009KT 33/18 A3007 RMK A01 T03310183  RH  044%=      5-min Rain = 0
KSP1 151720Z 15008G14KT 33/18 A3007 RMK A01 T03320177  RH  042%=      5-min Rain = 0
KSP1 151725Z 16008G15KT 34/18 A3007 RMK A01 T03370175  RH  040%=      5-min Rain = 0
KSP1 151730Z 17007G12KT 33/18 A3007 RMK A01 T03340179  RH  042%=      5-min Rain = 0
KSP1 151735Z 13006G11KT 33/18 A3007 RMK A01 T03320181  RH  043%=      5-min Rain = 0
KSP1 151740Z 18007G12KT 34/18 A3006 RMK A01 T03400176  RH  040%=      5-min Rain = 0
KSP1 151745Z 15007KT 34/17 A3006 RMK A01 T03380173  RH  039%=      5-min Rain = 0
KSP1 151750Z 14005G10KT 34/17 A3006 RMK A01 T03430173  RH  038%=      5-min Rain = 0
KSP1 151755Z 13005KT 34/18 A3006 RMK A01 T03420176  RH  039%=      5-min Rain = 0
KSP1 151800Z 10006KT 34/17 A3006 RMK A01 T03440174  RH  038%=      5-min Rain = 0
KSP1 151805Z 16009KT 34/17 A3006 RMK A01 T03420172  RH  038%=      5-min Rain = 0
KSP1 151810Z 20005G10KT 35/17 A3005 RMK A01 T03460171  RH  037%=      5-min Rain = 0
KSP1 151815Z 15007G13KT 35/17 A3005 RMK A01 T03470170  RH  037%=      5-min Rain = 0
KSP1 151820Z 17007KT 35/17 A3005 RMK A01 T03480168  RH  036%=      5-min Rain = 0
KSP1 151825Z 19006G11KT 35/17 A3005 RMK A01 T03490167  RH  036%=      5-min Rain = 0
KSP1 151830Z 17004KT 35/17 A3005 RMK A01 T03500168  RH  036%=      5-min Rain = 0
KSP1 151835Z 10005G11KT 35/17 A3004 RMK A01 T03520168  RH  035%=      5-min Rain = 0
KSP1 151840Z 13006G12KT 35/17 A3004 RMK A01 T03460168  RH  037%=      5-min Rain = 0
KSP1 151845Z 18006G12KT 35/17 A3004 RMK A01 T03540168  RH  035%=      5-min Rain = 0
KSP1 151850Z 17006G15KT 36/17 A3003 RMK A01 T03550167  RH  035%=      5-min Rain = 0
KSP1 151855Z 19010G15KT 36/16 A3003 RMK A01 T03570164  RH  034%=      5-min Rain = 0
KSP1 151900Z 17003G8KT 35/16 A3003 RMK A01 T03540162  RH  034%=      5-min Rain = 0
KSP1 151905Z 21006KT 36/16 A3003 RMK A01 T03610164  RH  033%=      5-min Rain = 0
KSP1 151910Z 22006G12KT 36/16 A3003 RMK A01 T03620161  RH  032%=      5-min Rain = 0
KSP1 151915Z 17002G7KT 36/16 A3003 RMK A01 T03600158  RH  032%=      5-min Rain = 0
KSP1 151920Z 20002G10KT 36/16 A3003 RMK A01 T03630159  RH  031%=      5-min Rain = 0
KSP1 151925Z 18004G10KT 37/16 A3002 RMK A01 T03650162  RH  031%=      5-min Rain = 0
KSP1 151930Z 14003KT 36/16 A3002 RMK A01 T03640162  RH  032%=      5-min Rain = 0
KSP1 151935Z 12005KT 37/16 A3002 RMK A01 T03660161  RH  031%=      5-min Rain = 0
KSP1 151940Z 15006G11KT 37/16 A3002 RMK A01 T03670160  RH  031%=      5-min Rain = 0
KSP1 151945Z 14006G12KT 37/16 A3002 RMK A01 T03680158  RH  030%=      5-min Rain = 0
KSP1 151950Z 14004G11KT 37/16 A3001 RMK A01 T03660158  RH  031%=      5-min Rain = 0
KSP1 151955Z 19004KT 37/16 A3001 RMK A01 T03710157  RH  030%=      5-min Rain = 0
KSP1 152000Z 13006KT 37/16 A3001 RMK A01 T03660155  RH  030%=      5-min Rain = 0
KSP1 152005Z 15004KT 36/16 A30 RMK A01 T03580155  RH  031%=      5-min Rain = 0
KSP1 152010Z 11005KT 36/16 A30 RMK A01 T03580155  RH  031%=      5-min Rain = 0
KSP1 152015Z 14004G10KT 36/16 A2999 RMK A01 T03590155  RH  031%=      5-min Rain = 0
KSP1 152020Z 18007G12KT 37/16 A2999 RMK A01 T03670156  RH  030%=      5-min Rain = 0
KSP1 152025Z 30003KT 37/15 A2999 RMK A01 T03680153  RH  029%=      5-min Rain = 0
KSP1 152030Z 08003G8KT 37/16 A2998 RMK A01 T03720155  RH  029%=      5-min Rain = 0
KSP1 152035Z 08004G10KT 37/16 A2998 RMK A01 T03690156  RH  030%=      5-min Rain = 0
KSP1 152040Z 17007KT 37/15 A2998 RMK A01 T03730154  RH  029%=      5-min Rain = 0
KSP1 152045Z 17007KT 38/15 A2998 RMK A01 T03750154  RH  028%=      5-min Rain = 0
KSP1 152050Z 15008G15KT 37/16 A2997 RMK A01 T03720155  RH  029%=      5-min Rain = 0
KSP1 152055Z 12007KT 37/15 A2997 RMK A01 T03680153  RH  029%=      5-min Rain = 0
KSP1 152100Z 11004G9KT 36/15 A2997 RMK A01 T03620150  RH  030%=      5-min Rain = 0
KSP1 152105Z 12005KT 36/15 A2997 RMK A01 T03620148  RH  029%=      5-min Rain = 0
KSP1 152110Z 17008KT 37/14 A2997 RMK A01 T03680144  RH  028%=      5-min Rain = 0
KSP1 152115Z 18007KT 37/14 A2997 RMK A01 T03660143  RH  028%=      5-min Rain = 0
KSP1 152120Z 13007KT 36/15 A2997 RMK A01 T03630149  RH  029%=      5-min Rain = 0
KSP1 152125Z 11006KT 37/15 A2997 RMK A01 T03660150  RH  029%=      5-min Rain = 0
KSP1 152130Z 12005G10KT 37/15 A2996 RMK A01 T03700150  RH  028%=      5-min Rain = 0
KSP1 152135Z 14007KT 38/15 A2996 RMK A01 T03770150  RH  027%=      5-min Rain = 0
KSP1 152140Z 17005KT 37/15 A2996 RMK A01 T03710147  RH  028%=      5-min Rain = 0
KSP1 152145Z 19004G11KT 37/15 A2996 RMK A01 T03710148  RH  028%=      5-min Rain = 0
KSP1 152150Z 19006KT 37/15 A2996 RMK A01 T03690147  RH  028%=      5-min Rain = 0
KSP1 152155Z 17005KT 37/15 A2996 RMK A01 T03740147  RH  027%=      5-min Rain = 0
KSP1 152200Z 12007G16KT 38/15 A2995 RMK A01 T03770151  RH  028%=      5-min Rain = 0
KSP1 152205Z 11008KT 37/15 A2995 RMK A01 T03730151  RH  028%=      5-min Rain = 0
KSP1 152210Z 16007G12KT 37/15 A2995 RMK A01 T03720149  RH  028%=      5-min Rain = 0
KSP1 152215Z 21005KT 37/15 A2995 RMK A01 T03690148  RH  028%=      5-min Rain = 0
KSP1 152220Z 18006KT 37/15 A2995 RMK A01 T03720149  RH  028%=      5-min Rain = 0
KSP1 152225Z 17009KT 37/15 A2995 RMK A01 T03720147  RH  028%=      5-min Rain = 0
KSP1 152230Z 15007G14KT 37/15 A2994 RMK A01 T03730148  RH  028%=      5-min Rain = 0
KSP1 152235Z 14009KT 37/15 A2994 RMK A01 T03690147  RH  028%=      5-min Rain = 0
KSP1 152240Z 16008KT 37/15 A2994 RMK A01 T03660146  RH  028%=      5-min Rain = 0
KSP1 152245Z 15008KT 36/15 A2994 RMK A01 T03640148  RH  029%=      5-min Rain = 0
KSP1 152250Z 15007KT 37/15 A2994 RMK A01 T03710149  RH  028%=      5-min Rain = 0
KSP1 152255Z 15006KT 37/15 A2994 RMK A01 T03730147  RH  027%=      5-min Rain = 0
KSP1 152300Z 18007KT 38/15 A2994 RMK A01 T03750146  RH  027%=      5-min Rain = 0
KSP1 152305Z 15007G13KT 38/15 A2993 RMK A01 T03780147  RH  027%=      5-min Rain = 0
KSP1 152310Z 15011G16KT 38/15 A2993 RMK A01 T03760148  RH  027%=      5-min Rain = 0
KSP1 152315Z 16009KT 37/15 A2993 RMK A01 T03730147  RH  027%=      5-min Rain = 0
KSP1 152320Z 15010G16KT 37/15 A2993 RMK A01 T03700146  RH  028%=      5-min Rain = 0
KSP1 152325Z 16010KT 37/15 A2993 RMK A01 T03650146  RH  028%=      5-min Rain = 0
KSP1 152330Z 15009KT 36/15 A2993 RMK A01 T03610145  RH  029%=      5-min Rain = 0
KSP1 152335Z 15010G15KT 36/14 A2993 RMK A01 T03590144  RH  029%=      5-min Rain = 0
KSP1 152340Z 16009KT 36/14 A2993 RMK A01 T03570143  RH  029%=      5-min Rain = 0
KSP1 152345Z 16008G13KT 36/14 A2993 RMK A01 T03570143  RH  029%=      5-min Rain = 0
KSP1 152350Z 16008KT 36/14 A2993 RMK A01 T03560143  RH  029%=      5-min Rain = 0
KSP1 152355Z 15008KT 36/14 A2993 RMK A01 T03550143  RH  029%=      5-min Rain = 0
KSP1 160000Z 16009G15KT 35/14 A2993 RMK A01 T03540143  RH  030%=      5-min Rain = 0
KSP1 160005Z 16008KT 35/14 A2993 RMK A01 T03530144  RH  030%=      5-min Rain = 0
KSP1 160010Z 15007G13KT 35/15 A2993 RMK A01 T03530145  RH  030%=      5-min Rain = 0
KSP1 160015Z 15008G13KT 35/14 A2993 RMK A01 T03530144  RH  030%=      5-min Rain = 0
KSP1 160020Z 15008G13KT 36/14 A2993 RMK A01 T03560144  RH  029%=      5-min Rain = 0
KSP1 160025Z 16009KT 36/14 A2992 RMK A01 T03580144  RH  029%=      5-min Rain = 0
KSP1 160030Z 15011G18KT 36/14 A2992 RMK A01 T03570144  RH  029%=      5-min Rain = 0
KSP1 160035Z 15012KT 35/14 A2992 RMK A01 T03540144  RH  030%=      5-min Rain = 0
KSP1 160040Z 14010KT 35/15 A2992 RMK A01 T03520145  RH  030%=      5-min Rain = 0
KSP1 160045Z 15011KT 35/14 A2992 RMK A01 T03510144  RH  030%=      5-min Rain = 0
KSP1 160050Z 15010G15KT 35/15 A2992 RMK A01 T03490145  RH  031%=      5-min Rain = 0
KSP1 160055Z 15009G14KT 35/15 A2992 RMK A01 T03470145  RH  031%=      5-min Rain = 0
KSP1 160100Z 14009G14KT 35/15 A2992 RMK A01 T03460145  RH  031%=      5-min Rain = 0
KSP1 160105Z 14009KT 34/15 A2992 RMK A01 T03430146  RH  032%=      5-min Rain = 0
KSP1 160110Z 15009KT 34/15 A2993 RMK A01 T03420146  RH  032%=      5-min Rain = 0
KSP1 160115Z 16007KT 34/15 A2993 RMK A01 T03400146  RH  033%=      5-min Rain = 0
KSP1 160120Z 16007KT 34/15 A2993 RMK A01 T03380146  RH  033%=      5-min Rain = 0
KSP1 160125Z 15006KT 34/15 A2993 RMK A01 T03360145  RH  033%=      5-min Rain = 0
KSP1 160130Z 15005KT 33/15 A2994 RMK A01 T03340146  RH  034%=      5-min Rain = 0
KSP1 160135Z 15005KT 33/15 A2994 RMK A01 T03310146  RH  034%=      5-min Rain = 0
KSP1 160140Z 15006KT 33/15 A2994 RMK A01 T03280147  RH  035%=      5-min Rain = 0
KSP1 160145Z 15006KT 33/15 A2994 RMK A01 T03270148  RH  035%=      5-min Rain = 0
KSP1 160150Z 15005KT 33/15 A2994 RMK A01 T03250148  RH  036%=      5-min Rain = 0
KSP1 160155Z 15005KT 32/15 A2994 RMK A01 T03220149  RH  037%=      5-min Rain = 0
KSP1 160200Z 16005KT 32/15 A2994 RMK A01 T03200149  RH  037%=      5-min Rain = 0
KSP1 160205Z 16005KT 32/15 A2994 RMK A01 T03180149  RH  038%=      5-min Rain = 0
KSP1 160210Z 17005KT 32/15 A2994 RMK A01 T03170149  RH  038%=      5-min Rain = 0
KSP1 160215Z 17005KT 32/15 A2994 RMK A01 T03170149  RH  038%=      5-min Rain = 0
KSP1 160220Z 20005KT 32/15 A2995 RMK A01 T03150149  RH  038%=      5-min Rain = 0
KSP1 160225Z 22005KT 31/15 A2995 RMK A01 T03100150  RH  040%=      5-min Rain = 0
KSP1 160230Z 21005KT 31/15 A2995 RMK A01 T03070152  RH  041%=      5-min Rain = 0
KSP1 160235Z 20007KT 31/15 A2996 RMK A01 T03090152  RH  040%=      5-min Rain = 0
KSP1 160240Z 18006KT 32/15 A2996 RMK A01 T03150153  RH  039%=      5-min Rain = 0
KSP1 160245Z 17005KT 31/15 A2997 RMK A01 T03140152  RH  039%=      5-min Rain = 0
KSP1 160250Z 18005G10KT 31/15 A2997 RMK A01 T03130151  RH  039%=      5-min Rain = 0
KSP1 160255Z 20004KT 31/15 A2997 RMK A01 T03130152  RH  039%=      5-min Rain = 0
KSP1 160300Z 19004KT 31/15 A2997 RMK A01 T03090152  RH  040%=      5-min Rain = 0
KSP1 160305Z 17003KT 31/15 A2998 RMK A01 T03080152  RH  041%=      5-min Rain = 0
KSP1 160310Z 15003KT 31/15 A2999 RMK A01 T03080152  RH  041%=      5-min Rain = 0
KSP1 160315Z 11001KT 31/15 A2999 RMK A01 T03080152  RH  041%=      5-min Rain = 0
KSP1 160320Z 06002KT 31/15 A30 RMK A01 T03070152  RH  041%=      5-min Rain = 0
KSP1 160325Z 02003KT 31/15 A30 RMK A01 T03050152  RH  041%=      5-min Rain = 0
KSP1 160330Z 01005KT 30/15 A30 RMK A01 T03030152  RH  042%=      5-min Rain = 0
KSP1 160335Z 00008KT 30/15 A3001 RMK A01 T02980153  RH  043%=      5-min Rain = 0
KSP1 160340Z 01008KT 29/15 A3001 RMK A01 T02930154  RH  045%=      5-min Rain = 0
KSP1 160345Z 02008KT 29/15 A3001 RMK A01 T02930153  RH  045%=      5-min Rain = 0
KSP1 160350Z 02011G18KT 29/15 A3002 RMK A01 T02930150  RH  044%=      5-min Rain = 0
KSP1 160355Z 02012G17KT 29/14 A3002 RMK A01 T02900144  RH  043%=      5-min Rain = 0
KSP1 160400Z 02010KT 29/14 A3002 RMK A01 T02850142  RH  043%=      5-min Rain = 0
KSP1 160405Z 03011KT 28/14 A3002 RMK A01 T02840137  RH  042%=      5-min Rain = 0
KSP1 160410Z 03010KT 28/13 A3002 RMK A01 T02830133  RH  041%=      5-min Rain = 0
KSP1 160415Z 03010KT 28/13 A3002 RMK A01 T02820127  RH  040%=      5-min Rain = 0
KSP1 160420Z 03009KT 28/12 A3003 RMK A01 T02820123  RH  039%=      5-min Rain = 0
KSP1 160425Z 04008KT 28/12 A3003 RMK A01 T02810120  RH  038%=      5-min Rain = 0
KSP1 160430Z 06007KT 28/12 A3002 RMK A01 T02810119  RH  038%=      5-min Rain = 0
KSP1 160435Z 06006KT 28/12 A3002 RMK A01 T02800118  RH  038%=      5-min Rain = 0
KSP1 160440Z 06007KT 28/12 A3002 RMK A01 T02820115  RH  037%=      5-min Rain = 0
KSP1 160445Z 06007KT 28/11 A3001 RMK A01 T02820114  RH  037%=      5-min Rain = 0
KSP1 160450Z 07007KT 29/11 A3001 RMK A01 T02860112  RH  035%=      5-min Rain = 0
KSP1 160455Z 07007KT 29/11 A3001 RMK A01 T02850111  RH  035%=      5-min Rain = 0

Page generated in 0.024 seconds.